Details From KCHA - Lovell Field
To KNQA - Millington Muni
Flight Number -
Tags decoded
Created
Modified
Stats Distance 230 nm / 426 km
Max Altitude 0 ft / 0 m
Waypoints 2
Social Downloads 0
Likes 0
Share VATSIM

Download

Looking for another format? Having issues loading an existing format? Contact us
Advertisement - Login to hide

Notes

Requested: KCHA KNQA

Route

KCHA KNQA

ID Type Via Altitude Latitude Longitude Leg Dist Tot Dist Heading (true) Name
O KCHA APT - 0 ft / 0 m 35.03565˚ -85.20349˚ - 0 nm - Lovell Field
O KNQA APT - 0 ft / 0 m 35.35664˚ -89.87043˚ 229 nm 229 nm 276° / 273° Millington Muni

Altitude Profile

Advertisement - Login to hide

Weather


0- 5 10 15 20 25 30 35+ Temperature / ° C

Clouds and Precipitation
Forecast for 2017-12-18 06:00 UTC. Updated 2 hours ago

Ground ~20,000 ft ~40,000 ft Winds

KCHA

Details ICAO KCHA (CHA)
Name Lovell Field
Region United States
Timezone America/New_York (UTC-5.0)
Stats Elevation 683 ft / 208 m (AMSL)
Location 35.035654° -85.203491°
Runways 2
Magnetic Variation 4.748° W

METAR

KCHA 180520Z 00000KT 3/4SM R02/3500V5000FT BR VV003 06/05 A3018

Decode

TAF

TAF KCHA 172320Z 1800/1824 00000KT 2SM BR SCT007 OVC015 TEMPO 1800/1803 1SM -DZ BR OVC007 FM180300 00000KT 1SM BR OVC007 FM180600 00000KT 1/2SM FG OVC003 FM181800 18003KT 5SM BR OVC010 FM182000 20004KT P6SM BKN020

Decode

Departure Runways

ID Width Length Bearing (true) Bearing (mag) Surface Threshold Offset Overrun Length
02 151 ft / 46 m 7,416 ft / 2,260 m 16.63° 21.38° Asphalt 0 ft / 0 m 49 ft / 15 m
15 151 ft / 46 m 5,580 ft / 1,701 m 145.60° 150.35° Asphalt 105 ft / 32 m 0 ft / 0 m
20 151 ft / 46 m 7,416 ft / 2,260 m 196.63° 201.38° Asphalt 0 ft / 0 m 0 ft / 0 m
33 151 ft / 46 m 5,580 ft / 1,701 m 325.61° 330.36° Asphalt 574 ft / 175 m 0 ft / 0 m

KNQA

Details ICAO KNQA (NQA)
Name Millington Muni
Region United States
Timezone America/Chicago (UTC-6.0)
Stats Elevation 320 ft / 98 m (AMSL)
Location 35.356642° -89.870428°
Runways 1
Magnetic Variation 1.460° W

METAR

KNQA 180515Z AUTO 00000KT 3/4SM BR OVC003 08/08 A3013 RMK A01

Decode

TAF

Not found

Destination Runways

ID Width Length Bearing (true) Bearing (mag) Surface Threshold Offset Overrun Length
04 200 ft / 61 m 8,006 ft / 2,440 m 38.77° 40.23° Asphalt 0 ft / 0 m 259 ft / 79 m
22 200 ft / 61 m 8,006 ft / 2,440 m 218.77° 220.23° Asphalt 0 ft / 0 m 259 ft / 79 m

Approach Navaids

Runway Type Ident Frequency Range Bearing (true) Bearing (mag) Slope Elevation
22 Localiser INQA 109.75 MHz 18 nm / 33 km 218.76° 220.22° - 320 ft / 98 m (AMSL)
22 Glidescope INQA 109.75 MHz 10 nm / 19 km 218.77° 220.23° 3.00° 318 ft / 97 m (AMSL)
22 DME INQA 109.75 MHz 18 nm / 33 km - - - 320 ft / 98 m (AMSL)